sensor_id;sensor_type;location;lat;lon;timestamp;pressure;altitude;pressure_sealevel;temperature;humidity
20971;BME280;10644;48.834;10.088;2022-12-07T00:02:19;96666.25;;;8.02;62.70
20971;BME280;10644;48.834;10.088;2022-12-07T00:04:44;96668.81;;;8.02;62.84
20971;BME280;10644;48.834;10.088;2022-12-07T00:07:09;96663.81;;;7.99;62.92
20971;BME280;10644;48.834;10.088;2022-12-07T00:09:49;96658.66;;;8.01;63.14
20971;BME280;10644;48.834;10.088;2022-12-07T00:12:17;96659.06;;;8.10;62.85
20971;BME280;10644;48.834;10.088;2022-12-07T00:14:48;96653.84;;;8.13;62.63
20971;BME280;10644;48.834;10.088;2022-12-07T00:17:13;96665.31;;;8.23;62.00
20971;BME280;10644;48.834;10.088;2022-12-07T00:19:40;96650.69;;;8.27;61.85
20971;BME280;10644;48.834;10.088;2022-12-07T00:22:10;96656.56;;;8.29;61.82
20971;BME280;10644;48.834;10.088;2022-12-07T00:24:37;96645.50;;;8.28;61.77
20971;BME280;10644;48.834;10.088;2022-12-07T00:27:03;96650.84;;;8.24;61.75
20971;BME280;10644;48.834;10.088;2022-12-07T00:29:31;96638.59;;;8.12;62.37
20971;BME280;10644;48.834;10.088;2022-12-07T00:31:57;96647.22;;;8.09;62.12
20971;BME280;10644;48.834;10.088;2022-12-07T00:34:22;96646.63;;;7.84;62.56
20971;BME280;10644;48.834;10.088;2022-12-07T00:36:55;96649.97;;;7.86;62.77
20971;BME280;10644;48.834;10.088;2022-12-07T00:39:30;96648.91;;;7.90;62.89
20971;BME280;10644;48.834;10.088;2022-12-07T00:41:57;96646.91;;;7.78;63.06
20971;BME280;10644;48.834;10.088;2022-12-07T00:44:25;96641.81;;;7.78;63.51
20971;BME280;10644;48.834;10.088;2022-12-07T00:47:02;96644.44;;;7.95;63.15
20971;BME280;10644;48.834;10.088;2022-12-07T00:49:30;96646.31;;;7.92;62.81
20971;BME280;10644;48.834;10.088;2022-12-07T00:52:13;96644.50;;;7.75;62.82
20971;BME280;10644;48.834;10.088;2022-12-07T00:54:40;96644.00;;;7.67;63.35
20971;BME280;10644;48.834;10.088;2022-12-07T00:57:06;96640.84;;;7.62;63.53
20971;BME280;10644;48.834;10.088;2022-12-07T00:59:32;96652.28;;;7.72;63.38
20971;BME280;10644;48.834;10.088;2022-12-07T01:02:05;96640.16;;;7.77;63.10
20971;BME280;10644;48.834;10.088;2022-12-07T01:04:33;96650.63;;;7.71;63.29
20971;BME280;10644;48.834;10.088;2022-12-07T01:07:21;96647.72;;;7.60;63.81
20971;BME280;10644;48.834;10.088;2022-12-07T01:09:55;96648.56;;;7.61;63.69
20971;BME280;10644;48.834;10.088;2022-12-07T01:12:21;96641.88;;;7.58;63.95
20971;BME280;10644;48.834;10.088;2022-12-07T01:14:50;96640.75;;;7.64;63.31
20971;BME280;10644;48.834;10.088;2022-12-07T01:17:15;96649.25;;;7.64;63.42
20971;BME280;10644;48.834;10.088;2022-12-07T01:19:47;96646.06;;;7.59;63.77
20971;BME280;10644;48.834;10.088;2022-12-07T01:22:43;96654.19;;;7.67;63.65
20971;BME280;10644;48.834;10.088;2022-12-07T01:25:10;96652.97;;;7.76;63.69
20971;BME280;10644;48.834;10.088;2022-12-07T01:27:41;96657.78;;;7.82;63.63
20971;BME280;10644;48.834;10.088;2022-12-07T01:30:10;96658.38;;;7.88;63.66
20971;BME280;10644;48.834;10.088;2022-12-07T01:32:36;96650.72;;;7.88;63.33
20971;BME280;10644;48.834;10.088;2022-12-07T01:35:02;96654.72;;;7.75;63.60
20971;BME280;10644;48.834;10.088;2022-12-07T01:37:34;96653.97;;;7.53;64.37
20971;BME280;10644;48.834;10.088;2022-12-07T01:39:59;96650.91;;;7.65;63.97
20971;BME280;10644;48.834;10.088;2022-12-07T01:42:31;96653.81;;;7.76;63.73
20971;BME280;10644;48.834;10.088;2022-12-07T01:45:48;96657.78;;;7.82;63.35
20971;BME280;10644;48.834;10.088;2022-12-07T01:48:09;96654.72;;;7.75;63.69
20971;BME280;10644;48.834;10.088;2022-12-07T01:50:38;96660.47;;;7.60;64.20
20971;BME280;10644;48.834;10.088;2022-12-07T01:53:06;96665.69;;;7.57;64.34
20971;BME280;10644;48.834;10.088;2022-12-07T01:55:51;96663.16;;;7.57;64.22
20971;BME280;10644;48.834;10.088;2022-12-07T01:58:18;96661.44;;;7.38;64.63
20971;BME280;10644;48.834;10.088;2022-12-07T02:00:45;96664.81;;;7.38;65.03
20971;BME280;10644;48.834;10.088;2022-12-07T02:03:22;96660.72;;;7.54;64.19
20971;BME280;10644;48.834;10.088;2022-12-07T02:05:57;96661.72;;;7.50;63.68
20971;BME280;10644;48.834;10.088;2022-12-07T02:08:28;96661.81;;;7.49;64.54
20971;BME280;10644;48.834;10.088;2022-12-07T02:11:08;96659.69;;;7.58;63.92
20971;BME280;10644;48.834;10.088;2022-12-07T02:13:46;96655.78;;;7.51;64.05
20971;BME280;10644;48.834;10.088;2022-12-07T02:16:38;96668.88;;;7.42;64.50
20971;BME280;10644;48.834;10.088;2022-12-07T02:22:00;96669.41;;;7.30;64.80
20971;BME280;10644;48.834;10.088;2022-12-07T02:30:22;96655.13;;;7.46;64.17
20971;BME280;10644;48.834;10.088;2022-12-07T02:32:56;96652.06;;;7.58;64.15
20971;BME280;10644;48.834;10.088;2022-12-07T02:35:51;96649.84;;;7.51;64.36
20971;BME280;10644;48.834;10.088;2022-12-07T02:38:35;96644.84;;;7.68;64.03
20971;BME280;10644;48.834;10.088;2022-12-07T02:44:14;96649.97;;;7.86;63.35
20971;BME280;10644;48.834;10.088;2022-12-07T02:46:50;96653.00;;;7.94;62.94
20971;BME280;10644;48.834;10.088;2022-12-07T02:49:23;96651.06;;;7.99;63.00
20971;BME280;10644;48.834;10.088;2022-12-07T02:51:52;96658.03;;;7.96;62.42
20971;BME280;10644;48.834;10.088;2022-12-07T02:54:21;96650.09;;;7.83;63.03
20971;BME280;10644;48.834;10.088;2022-12-07T03:00:13;96640.59;;;7.68;63.70
20971;BME280;10644;48.834;10.088;2022-12-07T03:03:00;96640.16;;;7.77;62.94
20971;BME280;10644;48.834;10.088;2022-12-07T03:06:05;96644.22;;;7.63;63.38
20971;BME280;10644;48.834;10.088;2022-12-07T03:14:34;96639.84;;;7.65;62.59
20971;BME280;10644;48.834;10.088;2022-12-07T03:17:10;96642.25;;;7.49;63.49
20971;BME280;10644;48.834;10.088;2022-12-07T03:19:38;96637.47;;;7.42;63.35
20971;BME280;10644;48.834;10.088;2022-12-07T03:22:10;96633.78;;;7.49;63.62
20971;BME280;10644;48.834;10.088;2022-12-07T03:24:59;96637.66;;;7.57;63.30
20971;BME280;10644;48.834;10.088;2022-12-07T03:27:58;96635.88;;;7.59;62.96
20971;BME280;10644;48.834;10.088;2022-12-07T03:30:42;96635.66;;;7.64;63.56
20971;BME280;10644;48.834;10.088;2022-12-07T03:33:39;96636.88;;;7.75;63.33
20971;BME280;10644;48.834;10.088;2022-12-07T03:39:27;96630.25;;;7.71;62.46
20971;BME280;10644;48.834;10.088;2022-12-07T03:41:56;96624.19;;;7.74;62.91
20971;BME280;10644;48.834;10.088;2022-12-07T03:44:25;96629.41;;;7.89;62.52
20971;BME280;10644;48.834;10.088;2022-12-07T03:49:33;96643.69;;;7.75;62.59
20971;BME280;10644;48.834;10.088;2022-12-07T03:52:14;96635.22;;;7.74;62.72
20971;BME280;10644;48.834;10.088;2022-12-07T03:57:50;96621.66;;;7.92;61.92
20971;BME280;10644;48.834;10.088;2022-12-07T04:00:17;96613.94;;;7.94;61.43
20971;BME280;10644;48.834;10.088;2022-12-07T04:02:43;96611.66;;;7.88;61.59
20971;BME280;10644;48.834;10.088;2022-12-07T04:05:14;96615.59;;;7.95;62.24
20971;BME280;10644;48.834;10.088;2022-12-07T04:07:44;96617.03;;;8.00;61.49
20971;BME280;10644;48.834;10.088;2022-12-07T04:10:12;96621.59;;;7.94;61.51
20971;BME280;10644;48.834;10.088;2022-12-07T04:12:50;96608.75;;;7.95;62.23
20971;BME280;10644;48.834;10.088;2022-12-07T04:15:16;96605.91;;;8.01;61.43
20971;BME280;10644;48.834;10.088;2022-12-07T04:17:51;96614.63;;;7.97;61.93
20971;BME280;10644;48.834;10.088;2022-12-07T04:20:21;96614.41;;;7.83;61.89
20971;BME280;10644;48.834;10.088;2022-12-07T04:22:46;96612.91;;;7.79;61.92
20971;BME280;10644;48.834;10.088;2022-12-07T04:25:12;96617.91;;;7.62;62.11
20971;BME280;10644;48.834;10.088;2022-12-07T04:27:39;96609.63;;;7.57;62.41
20971;BME280;10644;48.834;10.088;2022-12-07T04:30:05;96615.69;;;7.73;62.38
20971;BME280;10644;48.834;10.088;2022-12-07T04:32:31;96605.59;;;7.72;62.55
20971;BME280;10644;48.834;10.088;2022-12-07T04:35:06;96618.13;;;7.76;61.76
20971;BME280;10644;48.834;10.088;2022-12-07T04:37:32;96614.94;;;7.71;61.97
20971;BME280;10644;48.834;10.088;2022-12-07T04:39:57;96609.50;;;7.60;62.19
20971;BME280;10644;48.834;10.088;2022-12-07T04:42:26;96599.88;;;7.67;62.05
20971;BME280;10644;48.834;10.088;2022-12-07T04:44:53;96586.44;;;7.63;61.73
20971;BME280;10644;48.834;10.088;2022-12-07T04:47:20;96585.66;;;7.61;61.94
20971;BME280;10644;48.834;10.088;2022-12-07T04:49:45;96575.56;;;7.60;61.64
20971;BME280;10644;48.834;10.088;2022-12-07T04:52:12;96578.81;;;7.43;61.62
20971;BME280;10644;48.834;10.088;2022-12-07T04:54:38;96585.06;;;7.36;61.93
20971;BME280;10644;48.834;10.088;2022-12-07T04:57:15;96582.25;;;7.42;61.44
20971;BME280;10644;48.834;10.088;2022-12-07T04:59:49;96576.91;;;7.48;61.39
20971;BME280;10644;48.834;10.088;2022-12-07T05:02:14;96565.06;;;7.47;61.44
20971;BME280;10644;48.834;10.088;2022-12-07T05:04:46;96575.03;;;7.52;61.22
20971;BME280;10644;48.834;10.088;2022-12-07T05:07:11;96569.66;;;7.39;60.39
20971;BME280;10644;48.834;10.088;2022-12-07T05:09:40;96583.19;;;7.21;61.25
20971;BME280;10644;48.834;10.088;2022-12-07T05:12:05;96579.47;;;7.28;60.86
20971;BME280;10644;48.834;10.088;2022-12-07T05:14:37;96579.47;;;7.28;60.92
20971;BME280;10644;48.834;10.088;2022-12-07T05:17:12;96586.81;;;6.96;62.07
20971;BME280;10644;48.834;10.088;2022-12-07T05:19:40;96588.56;;;6.95;62.25
20971;BME280;10644;48.834;10.088;2022-12-07T05:22:13;96583.19;;;7.21;62.50
20971;BME280;10644;48.834;10.088;2022-12-07T05:24:52;96577.81;;;7.27;62.03
20971;BME280;10644;48.834;10.088;2022-12-07T05:27:22;96578.56;;;7.49;61.58
20971;BME280;10644;48.834;10.088;2022-12-07T05:29:49;96581.06;;;7.69;60.59
20971;BME280;10644;48.834;10.088;2022-12-07T05:32:15;96576.44;;;7.77;60.59
20971;BME280;10644;48.834;10.088;2022-12-07T05:34:43;96571.69;;;7.88;60.22
20971;BME280;10644;48.834;10.088;2022-12-07T05:37:10;96587.53;;;7.95;59.69
20971;BME280;10644;48.834;10.088;2022-12-07T05:39:35;96594.97;;;7.99;59.87
20971;BME280;10644;48.834;10.088;2022-12-07T05:42:03;96592.31;;;8.02;59.65
20971;BME280;10644;48.834;10.088;2022-12-07T05:44:47;96597.31;;;8.04;58.92
20971;BME280;10644;48.834;10.088;2022-12-07T05:47:14;96594.84;;;8.02;58.98
20971;BME280;10644;48.834;10.088;2022-12-07T05:49:40;96591.25;;;8.06;58.96
20971;BME280;10644;48.834;10.088;2022-12-07T05:52:06;96593.78;;;8.06;58.81
20971;BME280;10644;48.834;10.088;2022-12-07T05:54:31;96597.13;;;8.08;58.72
20971;BME280;10644;48.834;10.088;2022-12-07T05:57:01;96586.75;;;8.11;59.01
20971;BME280;10644;48.834;10.088;2022-12-07T05:59:26;96595.09;;;8.15;58.54
20971;BME280;10644;48.834;10.088;2022-12-07T06:02:05;96578.16;;;8.14;58.81
20971;BME280;10644;48.834;10.088;2022-12-07T06:04:37;96578.97;;;8.14;58.59
20971;BME280;10644;48.834;10.088;2022-12-07T06:07:28;96581.31;;;8.00;58.95
20971;BME280;10644;48.834;10.088;2022-12-07T06:09:53;96583.41;;;7.92;59.19
20971;BME280;10644;48.834;10.088;2022-12-07T06:12:20;96592.09;;;7.88;59.05
20971;BME280;10644;48.834;10.088;2022-12-07T06:15:15;96596.84;;;7.77;59.25
20971;BME280;10644;48.834;10.088;2022-12-07T06:17:41;96601.13;;;7.77;59.34
20971;BME280;10644;48.834;10.088;2022-12-07T06:20:07;96606.13;;;7.78;59.52
20971;BME280;10644;48.834;10.088;2022-12-07T06:22:45;96610.19;;;7.82;59.38
20971;BME280;10644;48.834;10.088;2022-12-07T06:25:11;96609.72;;;7.74;59.18
20971;BME280;10644;48.834;10.088;2022-12-07T06:27:36;96609.75;;;7.54;59.50
20971;BME280;10644;48.834;10.088;2022-12-07T06:30:04;96622.66;;;7.51;60.05
20971;BME280;10644;48.834;10.088;2022-12-07T06:32:33;96604.28;;;7.43;60.28
20971;BME280;10644;48.834;10.088;2022-12-07T06:35:00;96606.63;;;7.48;60.68
20971;BME280;10644;48.834;10.088;2022-12-07T06:37:26;96621.44;;;7.60;60.17
20971;BME280;10644;48.834;10.088;2022-12-07T06:39:51;96626.06;;;7.50;60.19
20971;BME280;10644;48.834;10.088;2022-12-07T06:42:22;96622.91;;;7.45;60.81
20971;BME280;10644;48.834;10.088;2022-12-07T06:44:59;96615.59;;;7.56;60.96
20971;BME280;10644;48.834;10.088;2022-12-07T06:47:36;96625.13;;;7.71;60.36
20971;BME280;10644;48.834;10.088;2022-12-07T06:50:28;96632.66;;;7.74;60.92
20971;BME280;10644;48.834;10.088;2022-12-07T06:53:00;96631.63;;;7.60;60.99
20971;BME280;10644;48.834;10.088;2022-12-07T06:55:28;96625.38;;;7.47;61.33
20971;BME280;10644;48.834;10.088;2022-12-07T06:57:53;96627.06;;;7.28;62.28
20971;BME280;10644;48.834;10.088;2022-12-07T07:00:20;96632.09;;;7.29;62.34
20971;BME280;10644;48.834;10.088;2022-12-07T07:02:45;96636.47;;;7.46;61.54
20971;BME280;10644;48.834;10.088;2022-12-07T07:05:13;96641.94;;;7.57;61.51
20971;BME280;10644;48.834;10.088;2022-12-07T07:07:38;96628.56;;;7.52;60.99
20971;BME280;10644;48.834;10.088;2022-12-07T07:10:04;96636.13;;;7.53;61.57
20971;BME280;10644;48.834;10.088;2022-12-07T07:12:32;96629.25;;;7.55;61.40
20971;BME280;10644;48.834;10.088;2022-12-07T07:14:58;96638.94;;;7.47;61.30
20971;BME280;10644;48.834;10.088;2022-12-07T07:17:34;96634.81;;;7.45;61.96
20971;BME280;10644;48.834;10.088;2022-12-07T07:20:06;96639.69;;;7.49;62.05
20971;BME280;10644;48.834;10.088;2022-12-07T07:22:56;96637.78;;;7.54;61.42
20971;BME280;10644;48.834;10.088;2022-12-07T07:25:21;96645.31;;;7.37;61.92
20971;BME280;10644;48.834;10.088;2022-12-07T07:27:54;96636.72;;;7.40;62.02
20971;BME280;10644;48.834;10.088;2022-12-07T07:30:19;96638.84;;;7.30;62.06
20971;BME280;10644;48.834;10.088;2022-12-07T07:32:46;96645.56;;;7.11;62.89
20971;BME280;10644;48.834;10.088;2022-12-07T07:35:18;96643.16;;;7.08;62.96
20971;BME280;10644;48.834;10.088;2022-12-07T07:37:51;96643.16;;;7.08;62.46
20971;BME280;10644;48.834;10.088;2022-12-07T07:40:25;96646.34;;;7.13;62.81
20971;BME280;10644;48.834;10.088;2022-12-07T07:42:55;96653.59;;;7.02;63.26
20971;BME280;10644;48.834;10.088;2022-12-07T07:45:25;96657.84;;;7.02;63.44
20971;BME280;10644;48.834;10.088;2022-12-07T07:47:51;96654.75;;;7.15;63.37
20971;BME280;10644;48.834;10.088;2022-12-07T07:50:17;96647.38;;;7.29;62.91
20971;BME280;10644;48.834;10.088;2022-12-07T07:52:58;96660.88;;;7.31;62.60
20971;BME280;10644;48.834;10.088;2022-12-07T07:55:32;96660.16;;;7.28;62.62
20971;BME280;10644;48.834;10.088;2022-12-07T07:58:02;96661.03;;;7.07;63.60
20971;BME280;10644;48.834;10.088;2022-12-07T08:00:28;96653.47;;;7.05;63.67
20971;BME280;10644;48.834;10.088;2022-12-07T08:03:09;96659.47;;;7.24;62.95
20971;BME280;10644;48.834;10.088;2022-12-07T08:05:37;96666.47;;;7.19;63.14
20971;BME280;10644;48.834;10.088;2022-12-07T08:08:23;96645.41;;;7.16;63.17
20971;BME280;10644;48.834;10.088;2022-12-07T08:11:00;96664.66;;;7.21;63.10
20971;BME280;10644;48.834;10.088;2022-12-07T08:13:28;96661.38;;;7.19;63.18
20971;BME280;10644;48.834;10.088;2022-12-07T08:15:53;96660.22;;;7.26;62.83
20971;BME280;10644;48.834;10.088;2022-12-07T08:18:26;96660.47;;;7.20;63.21
20971;BME280;10644;48.834;10.088;2022-12-07T08:21:12;96657.03;;;7.01;63.75
20971;BME280;10644;48.834;10.088;2022-12-07T08:23:57;96655.59;;;7.16;63.02
20971;BME280;10644;48.834;10.088;2022-12-07T08:26:37;96654.94;;;7.31;63.50
20971;BME280;10644;48.834;10.088;2022-12-07T08:29:05;96661.69;;;7.32;62.90
20971;BME280;10644;48.834;10.088;2022-12-07T08:31:39;96650.56;;;7.34;62.58
20971;BME280;10644;48.834;10.088;2022-12-07T08:34:24;96661.38;;;7.19;62.74
20971;BME280;10644;48.834;10.088;2022-12-07T08:36:52;96658.38;;;7.30;62.51
20971;BME280;10644;48.834;10.088;2022-12-07T08:39:44;96665.19;;;7.29;62.00
20971;BME280;10644;48.834;10.088;2022-12-07T08:42:12;96668.25;;;7.17;62.66
20971;BME280;10644;48.834;10.088;2022-12-07T08:44:40;96652.09;;;6.97;62.24
20971;BME280;10644;48.834;10.088;2022-12-07T08:47:26;96660.69;;;6.94;61.31
20971;BME280;10644;48.834;10.088;2022-12-07T08:49:52;96655.69;;;6.93;60.94
20971;BME280;10644;48.834;10.088;2022-12-07T08:52:25;96657.75;;;6.83;60.35
20971;BME280;10644;48.834;10.088;2022-12-07T08:54:55;96660.59;;;6.97;60.35
20971;BME280;10644;48.834;10.088;2022-12-07T08:57:25;96659.97;;;7.12;60.35
20971;BME280;10644;48.834;10.088;2022-12-07T08:59:52;96662.13;;;7.21;59.65
20971;BME280;10644;48.834;10.088;2022-12-07T09:02:20;96669.22;;;7.15;59.39
20971;BME280;10644;48.834;10.088;2022-12-07T09:05:03;96665.94;;;7.11;59.29
20971;BME280;10644;48.834;10.088;2022-12-07T09:07:34;96660.22;;;7.06;58.74
20971;BME280;10644;48.834;10.088;2022-12-07T09:10:01;96664.22;;;7.12;59.03
20971;BME280;10644;48.834;10.088;2022-12-07T09:12:36;96659.84;;;7.15;58.94
20971;BME280;10644;48.834;10.088;2022-12-07T09:15:05;96657.84;;;7.02;58.20
20971;BME280;10644;48.834;10.088;2022-12-07T09:17:49;96665.44;;;7.03;58.01
20971;BME280;10644;48.834;10.088;2022-12-07T09:20:29;96658.78;;;6.99;58.82
20971;BME280;10644;48.834;10.088;2022-12-07T09:23:09;96661.91;;;6.86;58.60
20971;BME280;10644;48.834;10.088;2022-12-07T09:25:48;96658.53;;;6.85;58.50
20971;BME280;10644;48.834;10.088;2022-12-07T09:28:17;96658.44;;;7.08;59.12
20971;BME280;10644;48.834;10.088;2022-12-07T09:30:57;96663.78;;;7.22;58.31
20971;BME280;10644;48.834;10.088;2022-12-07T09:33:24;96662.53;;;7.12;56.98
20971;BME280;10644;48.834;10.088;2022-12-07T09:35:54;96664.84;;;6.97;57.75
20971;BME280;10644;48.834;10.088;2022-12-07T09:38:21;96660.84;;;7.11;57.36
20971;BME280;10644;48.834;10.088;2022-12-07T09:41:09;96658.00;;;7.39;57.96
20971;BME280;10644;48.834;10.088;2022-12-07T09:43:36;96656.78;;;7.47;56.54
20971;BME280;10644;48.834;10.088;2022-12-07T09:46:04;96652.72;;;7.23;56.08
20971;BME280;10644;48.834;10.088;2022-12-07T09:48:35;96650.88;;;7.27;56.56
20971;BME280;10644;48.834;10.088;2022-12-07T09:51:13;96656.28;;;7.19;57.39
20971;BME280;10644;48.834;10.088;2022-12-07T09:53:42;96646.06;;;6.99;57.79
20971;BME280;10644;48.834;10.088;2022-12-07T09:56:17;96650.28;;;7.20;56.79
20971;BME280;10644;48.834;10.088;2022-12-07T09:59:01;96645.25;;;7.19;57.45
20971;BME280;10644;48.834;10.088;2022-12-07T10:01:34;96639.84;;;7.06;57.36
20971;BME280;10644;48.834;10.088;2022-12-07T10:04:21;96639.72;;;7.09;57.24
20971;BME280;10644;48.834;10.088;2022-12-07T10:06:48;96638.44;;;7.19;56.84
20971;BME280;10644;48.834;10.088;2022-12-07T10:09:30;96632.94;;;7.48;57.67
20971;BME280;10644;48.834;10.088;2022-12-07T10:12:10;96625.41;;;7.65;57.19
20971;BME280;10644;48.834;10.088;2022-12-07T10:14:40;96633.44;;;7.56;55.87
20971;BME280;10644;48.834;10.088;2022-12-07T10:17:41;96633.69;;;7.50;57.45
20971;BME280;10644;48.834;10.088;2022-12-07T10:25:32;96624.34;;;7.51;57.41
20971;BME280;10644;48.834;10.088;2022-12-07T10:28:17;96623.13;;;7.59;56.97
20971;BME280;10644;48.834;10.088;2022-12-07T10:36:46;96608.31;;;7.49;57.21
20971;BME280;10644;48.834;10.088;2022-12-07T10:39:17;96611.03;;;7.44;57.76
20971;BME280;10644;48.834;10.088;2022-12-07T10:44:50;96619.94;;;7.74;57.04
20971;BME280;10644;48.834;10.088;2022-12-07T10:48:33;96620.78;;;7.55;57.76
20971;BME280;10644;48.834;10.088;2022-12-07T10:50:53;96601.38;;;7.32;58.27
20971;BME280;10644;48.834;10.088;2022-12-07T11:01:57;96603.00;;;7.53;58.01
20971;BME280;10644;48.834;10.088;2022-12-07T11:17:17;96585.84;;;8.12;57.34
20971;BME280;10644;48.834;10.088;2022-12-07T11:19:52;96588.50;;;7.92;57.84
20971;BME280;10644;48.834;10.088;2022-12-07T11:37:57;96582.16;;;7.64;58.80
20971;BME280;10644;48.834;10.088;2022-12-07T11:40:00;96576.88;;;7.68;58.58
20971;BME280;10644;48.834;10.088;2022-12-07T11:42:41;96581.34;;;7.63;58.77
20971;BME280;10644;48.834;10.088;2022-12-07T11:45:29;96573.19;;;7.55;58.90
20971;BME280;10644;48.834;10.088;2022-12-07T11:51:00;96568.38;;;7.86;58.41
20971;BME280;10644;48.834;10.088;2022-12-07T11:53:38;96571.69;;;7.88;58.28
20971;BME280;10644;48.834;10.088;2022-12-07T11:56:19;96556.66;;;7.82;58.35
20971;BME280;10644;48.834;10.088;2022-12-07T11:59:15;96566.88;;;7.82;58.56
20971;BME280;10644;48.834;10.088;2022-12-07T12:05:22;96547.44;;;7.98;57.93
20971;BME280;10644;48.834;10.088;2022-12-07T12:17:14;96525.19;;;8.19;58.38
20971;BME280;10644;48.834;10.088;2022-12-07T12:20:19;96529.22;;;8.24;57.99
20971;BME280;10644;48.834;10.088;2022-12-07T12:25:30;96525.78;;;8.25;58.15
20971;BME280;10644;48.834;10.088;2022-12-07T12:28:02;96528.22;;;8.27;58.43
20971;BME280;10644;48.834;10.088;2022-12-07T12:33:31;96521.03;;;7.99;58.80
20971;BME280;10644;48.834;10.088;2022-12-07T12:46:55;96516.69;;;8.54;58.35
20971;BME280;10644;48.834;10.088;2022-12-07T12:54:39;96524.66;;;8.12;60.05
20971;BME280;10644;48.834;10.088;2022-12-07T12:57:27;96513.09;;;8.24;60.20
20971;BME280;10644;48.834;10.088;2022-12-07T13:02:28;96507.94;;;8.42;59.94
20971;BME280;10644;48.834;10.088;2022-12-07T13:05:01;96508.38;;;8.50;61.94
20971;BME280;10644;48.834;10.088;2022-12-07T13:07:51;96508.06;;;8.73;59.39
20971;BME280;10644;48.834;10.088;2022-12-07T13:18:43;96494.66;;;8.17;58.35
20971;BME280;10644;48.834;10.088;2022-12-07T13:29:18;96496.00;;;8.07;58.81
20971;BME280;10644;48.834;10.088;2022-12-07T13:31:55;96482.06;;;8.14;58.74
20971;BME280;10644;48.834;10.088;2022-12-07T13:40:21;96486.13;;;8.35;58.43
20971;BME280;10644;48.834;10.088;2022-12-07T13:42:58;96486.97;;;8.36;58.12
20971;BME280;10644;48.834;10.088;2022-12-07T13:45:30;96489.91;;;8.28;57.98
20971;BME280;10644;48.834;10.088;2022-12-07T13:48:30;96488.50;;;8.40;58.47
20971;BME280;10644;48.834;10.088;2022-12-07T13:50:59;96482.47;;;8.58;57.69
20971;BME280;10644;48.834;10.088;2022-12-07T13:53:30;96494.25;;;8.43;57.56
20971;BME280;10644;48.834;10.088;2022-12-07T13:56:01;96490.19;;;8.22;57.61
20971;BME280;10644;48.834;10.088;2022-12-07T13:58:48;96481.19;;;8.32;58.60
20971;BME280;10644;48.834;10.088;2022-12-07T14:01:30;96484.81;;;8.45;58.04
20971;BME280;10644;48.834;10.088;2022-12-07T14:07:22;96477.38;;;8.58;57.56
20971;BME280;10644;48.834;10.088;2022-12-07T14:10:04;96477.72;;;8.67;57.31
20971;BME280;10644;48.834;10.088;2022-12-07T14:12:31;96482.84;;;8.50;57.66
20971;BME280;10644;48.834;10.088;2022-12-07T14:14:58;96482.19;;;8.47;57.64
20971;BME280;10644;48.834;10.088;2022-12-07T14:17:26;96491.34;;;8.51;57.42
20971;BME280;10644;48.834;10.088;2022-12-07T14:19:56;96492.63;;;8.42;57.81
20971;BME280;10644;48.834;10.088;2022-12-07T14:22:35;96483.38;;;8.40;57.52
20971;BME280;10644;48.834;10.088;2022-12-07T14:28:02;96485.03;;;8.41;58.87
20971;BME280;10644;48.834;10.088;2022-12-07T14:30:47;96482.91;;;8.32;58.83
20971;BME280;10644;48.834;10.088;2022-12-07T14:33:13;96490.13;;;8.41;58.31
20971;BME280;10644;48.834;10.088;2022-12-07T14:35:40;96486.97;;;8.36;58.15
20971;BME280;10644;48.834;10.088;2022-12-07T14:38:05;96490.97;;;8.41;58.35
20971;BME280;10644;48.834;10.088;2022-12-07T14:40:32;96489.16;;;8.43;58.08
20971;BME280;10644;48.834;10.088;2022-12-07T14:43:03;96475.66;;;8.41;58.22
20971;BME280;10644;48.834;10.088;2022-12-07T14:45:39;96478.97;;;8.43;58.14
20971;BME280;10644;48.834;10.088;2022-12-07T14:48:10;96468.88;;;8.40;58.61
20971;BME280;10644;48.834;10.088;2022-12-07T14:50:48;96463.22;;;8.52;58.69
20971;BME280;10644;48.834;10.088;2022-12-07T14:53:17;96473.59;;;8.65;57.83
20971;BME280;10644;48.834;10.088;2022-12-07T14:56:02;96481.94;;;8.34;58.78
20971;BME280;10644;48.834;10.088;2022-12-07T14:58:36;96477.31;;;8.42;58.74
20971;BME280;10644;48.834;10.088;2022-12-07T15:01:09;96471.84;;;8.33;58.33
20971;BME280;10644;48.834;10.088;2022-12-07T15:03:40;96473.97;;;8.40;58.80
20971;BME280;10644;48.834;10.088;2022-12-07T15:06:06;96470.81;;;8.35;58.59
20971;BME280;10644;48.834;10.088;2022-12-07T15:08:54;96480.13;;;8.19;58.93
20971;BME280;10644;48.834;10.088;2022-12-07T15:11:34;96484.97;;;8.25;58.98
20971;BME280;10644;48.834;10.088;2022-12-07T15:14:10;96486.19;;;8.17;59.53
20971;BME280;10644;48.834;10.088;2022-12-07T15:16:43;96484.69;;;8.13;59.51
20971;BME280;10644;48.834;10.088;2022-12-07T15:19:27;96488.81;;;8.15;60.30
20971;BME280;10644;48.834;10.088;2022-12-07T15:21:53;96476.41;;;8.26;59.53
20971;BME280;10644;48.834;10.088;2022-12-07T15:24:26;96480.53;;;8.29;59.52
20971;BME280;10644;48.834;10.088;2022-12-07T15:26:53;96474.06;;;8.22;59.38
20971;BME280;10644;48.834;10.088;2022-12-07T15:29:21;96469.41;;;8.30;59.51
20971;BME280;10644;48.834;10.088;2022-12-07T15:31:51;96463.94;;;8.20;59.63
20971;BME280;10644;48.834;10.088;2022-12-07T15:34:26;96478.59;;;8.15;59.91
20971;BME280;10644;48.834;10.088;2022-12-07T15:36:54;96478.34;;;8.21;59.85
20971;BME280;10644;48.834;10.088;2022-12-07T15:39:33;96449.19;;;8.08;60.05
20971;BME280;10644;48.834;10.088;2022-12-07T15:42:10;96476.41;;;8.26;60.31
20971;BME280;10644;48.834;10.088;2022-12-07T15:44:37;96468.97;;;8.22;60.14
20971;BME280;10644;48.834;10.088;2022-12-07T15:47:38;96465.78;;;8.17;60.25
20971;BME280;10644;48.834;10.088;2022-12-07T15:50:10;96472.50;;;8.36;59.33
20971;BME280;10644;48.834;10.088;2022-12-07T15:52:38;96477.31;;;8.42;59.27
20971;BME280;10644;48.834;10.088;2022-12-07T15:55:05;96460.78;;;8.32;59.18
20971;BME280;10644;48.834;10.088;2022-12-07T15:57:36;96452.53;;;8.27;59.56
20971;BME280;10644;48.834;10.088;2022-12-07T16:00:06;96466.25;;;8.42;59.51
20971;BME280;10644;48.834;10.088;2022-12-07T16:02:40;96442.03;;;8.33;59.01